createdAt,value
2019-01-31T00:01:33.489Z,-0.24
2019-01-31T00:04:25.182Z,-0.25
2019-01-31T00:07:16.607Z,-0.23
2019-01-31T00:09:52.874Z,-0.30
2019-01-31T00:13:00.989Z,-0.30
2019-01-31T00:15:37.510Z,-0.22
2019-01-31T00:18:25.888Z,-0.27
2019-01-31T00:21:05.266Z,-0.20
2019-01-31T00:23:53.644Z,-0.25
2019-01-31T00:26:53.898Z,-0.12
2019-01-31T00:29:30.717Z,-0.15
2019-01-31T00:32:20.662Z,-0.10
2019-01-31T00:35:09.159Z,-0.14
2019-01-31T00:37:42.738Z,-0.26
2019-01-31T00:40:18.946Z,-0.17
2019-01-31T00:43:02.708Z,-0.16
2019-01-31T00:45:58.154Z,-0.15
2019-01-31T00:48:57.497Z,-0.03
2019-01-31T00:51:52.625Z,-0.06
2019-01-31T00:54:32.109Z,-0.09
2019-01-31T00:57:14.294Z,-0.16
2019-01-31T00:59:52.544Z,-0.07
2019-01-31T01:02:33.617Z,0.01
2019-01-31T01:05:26.779Z,0.08
2019-01-31T01:08:07.668Z,0.13
2019-01-31T01:10:59.228Z,0.07
2019-01-31T01:13:34.361Z,0.06
2019-01-31T01:16:15.371Z,0.06
2019-01-31T01:18:53.475Z,0.02
2019-01-31T01:21:40.523Z,0.02
2019-01-31T01:24:16.732Z,0.07
2019-01-31T01:27:05.865Z,0.01
2019-01-31T01:29:50.345Z,-0.04
2019-01-31T01:32:44.462Z,-0.08
2019-01-31T01:35:31.502Z,-0.10
2019-01-31T01:38:13.539Z,-0.22
2019-01-31T01:41:11.458Z,-0.33
2019-01-31T01:44:03.195Z,-0.42
2019-01-31T01:46:39.757Z,-0.52
2019-01-31T01:49:20.548Z,-0.63
2019-01-31T01:52:11.921Z,-0.73
2019-01-31T01:54:47.682Z,-0.80
2019-01-31T01:57:30.870Z,-0.82
2019-01-31T02:00:36.029Z,-0.91
2019-01-31T02:03:09.637Z,-0.90
2019-01-31T02:05:46.070Z,-0.97
2019-01-31T02:08:42.203Z,-1.02
2019-01-31T02:11:40.938Z,-1.04
2019-01-31T02:14:32.355Z,-1.08
2019-01-31T02:17:14.472Z,-1.07
2019-01-31T02:19:57.104Z,-1.05
2019-01-31T02:22:40.646Z,-1.11
2019-01-31T02:25:24.266Z,-1.08
2019-01-31T02:28:16.509Z,-1.12
2019-01-31T02:30:51.295Z,-1.20
2019-01-31T02:33:39.993Z,-1.18
2019-01-31T02:36:18.736Z,-1.13
2019-01-31T02:39:01.055Z,-1.10
2019-01-31T02:41:52.547Z,-1.04
2019-01-31T02:44:33.741Z,-0.97
2019-01-31T02:47:25.518Z,-0.94
2019-01-31T02:50:21.926Z,-0.87
2019-01-31T02:53:10.073Z,-0.78
2019-01-31T02:55:49.463Z,-0.78
2019-01-31T02:58:35.085Z,-0.76
2019-01-31T03:01:35.646Z,-0.80
2019-01-31T03:04:15.040Z,-0.90
2019-01-31T03:07:19.936Z,-0.99
2019-01-31T03:10:00.583Z,-1.02
2019-01-31T03:12:56.595Z,-1.12
2019-01-31T03:15:30.117Z,-1.14
2019-01-31T03:18:03.728Z,-1.16
2019-01-31T03:20:42.985Z,-1.19
2019-01-31T03:23:26.253Z,-1.24
2019-01-31T03:26:05.635Z,-1.29
2019-01-31T03:28:43.931Z,-1.34
2019-01-31T03:31:21.056Z,-1.39
2019-01-31T03:34:01.361Z,-1.40
2019-01-31T03:36:34.861Z,-1.38
2019-01-31T03:39:11.252Z,-1.46
2019-01-31T03:41:47.391Z,-1.49
2019-01-31T03:44:32.440Z,-1.57
2019-01-31T03:47:22.140Z,-1.60
2019-01-31T03:50:01.634Z,-1.76
2019-01-31T03:52:53.243Z,-1.73
2019-01-31T03:55:43.623Z,-1.74
2019-01-31T03:58:35.018Z,-1.77
2019-01-31T04:01:23.637Z,-1.82
2019-01-31T04:04:09.075Z,-1.87
2019-01-31T04:06:39.541Z,-1.88
2019-01-31T04:09:10.951Z,-1.90
2019-01-31T04:11:41.211Z,-1.91
2019-01-31T04:14:12.621Z,-1.88
2019-01-31T04:16:44.094Z,-1.88
2019-01-31T04:19:15.529Z,-1.86
2019-01-31T04:21:47.000Z,-1.92
2019-01-31T04:24:18.436Z,-1.94
2019-01-31T04:26:49.903Z,-1.90
2019-01-31T04:29:21.948Z,-1.92
2019-01-31T04:31:53.416Z,-1.97
2019-01-31T04:34:24.854Z,-2.00
2019-01-31T04:36:56.349Z,-2.02
2019-01-31T04:39:27.748Z,-2.01
2019-01-31T04:41:58.014Z,-2.03
2019-01-31T04:44:29.428Z,-2.07
2019-01-31T04:47:00.895Z,-2.07
2019-01-31T04:49:32.330Z,-2.10
2019-01-31T04:52:03.799Z,-2.13
2019-01-31T04:54:35.226Z,-2.17
2019-01-31T04:57:05.497Z,-2.17
2019-01-31T04:59:36.904Z,-2.15
2019-01-31T05:02:08.376Z,-2.22
2019-01-31T05:04:39.802Z,-2.21
2019-01-31T05:07:10.067Z,-2.23
2019-01-31T05:09:41.483Z,-2.30
2019-01-31T05:12:13.131Z,-2.37
2019-01-31T05:15:02.189Z,-2.40
2019-01-31T05:17:45.356Z,-2.47
2019-01-31T05:20:18.112Z,-2.50
2019-01-31T05:22:49.475Z,-2.48
2019-01-31T05:25:37.222Z,-2.47
2019-01-31T05:28:07.770Z,-2.50
2019-01-31T05:30:41.944Z,-2.58
2019-01-31T05:33:13.405Z,-2.61
2019-01-31T05:35:44.839Z,-2.73
2019-01-31T05:38:17.559Z,-2.80
2019-01-31T05:40:55.728Z,-2.82
2019-01-31T05:43:21.672Z,-2.93
2019-01-31T05:45:54.026Z,-2.99
2019-01-31T05:48:24.574Z,-3.01
2019-01-31T05:50:56.014Z,-3.01
2019-01-31T05:53:27.498Z,-3.00
2019-01-31T05:55:58.930Z,-3.02
2019-01-31T05:58:30.695Z,-2.98
2019-01-31T06:01:03.053Z,-2.98
2019-01-31T06:03:35.448Z,-3.02
2019-01-31T06:06:06.871Z,-3.04
2019-01-31T06:08:40.892Z,-3.07
2019-01-31T06:11:14.072Z,-3.13
2019-01-31T06:13:45.565Z,-3.12
2019-01-31T06:16:17.019Z,-3.22
2019-01-31T06:18:48.448Z,-3.33
2019-01-31T06:21:19.904Z,-3.33
2019-01-31T06:23:50.210Z,-3.40
2019-01-31T06:26:20.654Z,-3.45
2019-01-31T06:28:52.123Z,-3.44
2019-01-31T06:31:23.271Z,-3.50
2019-01-31T06:33:54.711Z,-3.44
2019-01-31T06:36:27.050Z,-3.39
2019-01-31T06:38:58.519Z,-3.40
2019-01-31T06:41:29.946Z,-3.31
2019-01-31T06:44:01.420Z,-3.22
2019-01-31T06:46:32.863Z,-3.19
2019-01-31T06:49:04.322Z,-3.08
2019-01-31T06:51:35.755Z,-3.05
2019-01-31T06:54:07.805Z,-3.04
2019-01-31T06:56:38.364Z,-3.01
2019-01-31T06:59:09.823Z,-2.95
2019-01-31T07:01:41.252Z,-2.92
2019-01-31T07:04:12.717Z,-2.85
2019-01-31T07:06:44.153Z,-2.77
2019-01-31T07:09:15.626Z,-2.72
2019-01-31T07:11:47.049Z,-2.61
2019-01-31T07:14:17.332Z,-2.61
2019-01-31T07:16:48.738Z,-2.50
2019-01-31T07:19:20.216Z,-2.42
2019-01-31T07:21:51.947Z,-2.37
2019-01-31T07:24:22.232Z,-2.28
2019-01-31T07:26:52.492Z,-2.22
2019-01-31T07:29:22.766Z,-2.05
2019-01-31T07:31:54.078Z,-1.90
2019-01-31T07:34:24.361Z,-1.71
2019-01-31T07:36:54.607Z,-1.55
2019-01-31T07:39:24.898Z,-1.50
2019-01-31T07:41:55.145Z,-1.39
2019-01-31T07:44:25.426Z,-1.04
2019-01-31T07:46:55.700Z,-1.00
2019-01-31T07:49:25.978Z,-0.74
2019-01-31T07:51:56.219Z,-0.75
2019-01-31T07:54:26.485Z,-0.57
2019-01-31T07:56:56.752Z,-0.55
2019-01-31T07:59:27.029Z,-0.40
2019-01-31T08:01:57.292Z,-0.33
2019-01-31T08:04:27.565Z,-0.26
2019-01-31T08:06:57.826Z,-0.12
2019-01-31T08:09:28.098Z,-0.13
2019-01-31T08:11:58.364Z,-0.13
2019-01-31T08:14:28.662Z,-0.05
2019-01-31T08:16:58.921Z,0.06
2019-01-31T08:19:29.223Z,0.09
2019-01-31T08:21:59.462Z,0.19
2019-01-31T08:24:29.826Z,0.02
2019-01-31T08:27:01.167Z,-0.03
2019-01-31T08:29:31.511Z,0.07
2019-01-31T08:32:01.771Z,0.07
2019-01-31T08:34:33.035Z,-0.03
2019-01-31T08:37:03.295Z,-0.13
2019-01-31T08:39:33.569Z,0.12
2019-01-31T08:42:04.123Z,0.19
2019-01-31T08:44:34.637Z,0.17
2019-01-31T08:47:06.350Z,0.11
2019-01-31T08:49:36.633Z,0.30
2019-01-31T08:52:07.949Z,0.33
2019-01-31T08:54:38.213Z,0.52
2019-01-31T08:57:08.458Z,0.58
2019-01-31T08:59:38.729Z,0.68
2019-01-31T09:02:08.978Z,1.01
2019-01-31T09:04:39.247Z,1.22
2019-01-31T09:07:09.499Z,1.43
2019-01-31T09:09:40.839Z,1.29
2019-01-31T09:12:15.419Z,1.25
2019-01-31T09:14:44.334Z,1.41
2019-01-31T09:17:14.587Z,1.41
2019-01-31T09:19:45.134Z,1.38
2019-01-31T09:22:18.630Z,1.50
2019-01-31T09:24:52.152Z,1.50
2019-01-31T09:27:52.434Z,1.46
2019-01-31T09:30:28.660Z,1.43
2019-01-31T09:33:05.678Z,1.43
2019-01-31T09:35:42.054Z,1.42
2019-01-31T09:38:48.517Z,1.53
2019-01-31T09:41:27.606Z,1.55
2019-01-31T09:44:18.532Z,1.67
2019-01-31T09:47:08.468Z,1.57
2019-01-31T09:49:59.560Z,1.74
2019-01-31T09:52:48.204Z,1.79
2019-01-31T09:55:38.244Z,1.87
2019-01-31T09:58:17.610Z,1.98
2019-01-31T10:01:11.764Z,2.02
2019-01-31T10:03:47.810Z,1.99
2019-01-31T10:06:36.302Z,1.94
2019-01-31T10:09:12.494Z,1.99
2019-01-31T10:12:06.846Z,2.07
2019-01-31T10:14:40.411Z,2.19
2019-01-31T10:17:46.646Z,2.09
2019-01-31T10:20:36.198Z,2.07
2019-01-31T10:23:11.291Z,2.06
2019-01-31T10:26:02.836Z,1.93
2019-01-31T10:29:02.254Z,1.71
2019-01-31T10:31:35.788Z,1.76
2019-01-31T10:34:24.567Z,1.89
2019-01-31T10:37:07.004Z,1.82
2019-01-31T10:39:52.585Z,1.82
2019-01-31T10:42:51.803Z,2.04
2019-01-31T10:45:34.332Z,2.04
2019-01-31T10:48:10.532Z,2.05
2019-01-31T10:51:02.333Z,2.08
2019-01-31T10:53:47.627Z,2.13
2019-01-31T10:56:46.200Z,2.17
2019-01-31T10:59:31.520Z,2.30
2019-01-31T11:02:31.142Z,2.33
2019-01-31T11:05:22.575Z,2.26
2019-01-31T11:08:04.903Z,2.16
2019-01-31T11:10:56.170Z,2.20
2019-01-31T11:13:32.696Z,2.20
2019-01-31T11:16:41.068Z,2.28
2019-01-31T11:19:23.370Z,2.26
2019-01-31T11:22:17.859Z,2.45
2019-01-31T11:25:00.204Z,2.44
2019-01-31T11:27:54.208Z,2.50
2019-01-31T11:30:39.414Z,2.65
2019-01-31T11:33:12.940Z,2.61
2019-01-31T11:36:05.579Z,2.59
2019-01-31T11:39:01.828Z,2.71
2019-01-31T11:41:48.956Z,2.62
2019-01-31T11:44:48.114Z,2.67
2019-01-31T11:47:33.393Z,2.76
2019-01-31T11:50:29.527Z,2.70
2019-01-31T11:53:09.033Z,2.70
2019-01-31T11:55:48.159Z,2.69
2019-01-31T11:58:37.306Z,2.79
2019-01-31T12:01:08.246Z,2.86
2019-01-31T12:03:38.502Z,2.84
2019-01-31T12:06:08.769Z,2.81
2019-01-31T12:08:39.018Z,2.88
2019-01-31T12:11:09.312Z,3.02
2019-01-31T12:13:40.733Z,3.01
2019-01-31T12:16:10.994Z,3.09
2019-01-31T12:18:43.005Z,3.16
2019-01-31T12:21:13.281Z,3.14
2019-01-31T12:23:43.797Z,3.11
2019-01-31T12:26:14.157Z,2.99
2019-01-31T12:28:44.400Z,3.02
2019-01-31T12:31:14.669Z,3.13
2019-01-31T12:33:44.924Z,3.08
2019-01-31T12:36:16.089Z,3.02
2019-01-31T12:38:46.340Z,2.97
2019-01-31T12:41:16.603Z,3.06
2019-01-31T12:43:46.916Z,3.16
2019-01-31T12:46:17.184Z,3.19
2019-01-31T12:48:48.500Z,3.09
2019-01-31T12:51:19.944Z,3.01
2019-01-31T12:53:52.884Z,3.13
2019-01-31T12:56:23.163Z,3.02
2019-01-31T12:58:53.409Z,3.08
2019-01-31T13:01:23.684Z,3.10
2019-01-31T13:03:53.926Z,3.07
2019-01-31T13:06:24.198Z,3.07
2019-01-31T13:08:54.817Z,3.00
2019-01-31T13:11:25.088Z,2.93
2019-01-31T13:13:55.329Z,2.88
2019-01-31T13:16:25.587Z,2.80
2019-01-31T13:18:56.039Z,2.92
2019-01-31T13:21:35.821Z,2.99
2019-01-31T13:24:07.992Z,2.98
2019-01-31T13:26:39.890Z,2.95
2019-01-31T13:29:10.142Z,2.81
2019-01-31T13:31:40.408Z,2.73
2019-01-31T13:34:10.658Z,2.71
2019-01-31T13:36:41.723Z,2.69
2019-01-31T13:39:13.619Z,2.67
2019-01-31T13:41:43.892Z,2.75
2019-01-31T13:44:15.896Z,2.82
2019-01-31T13:47:05.397Z,2.92
2019-01-31T13:49:38.334Z,2.93
2019-01-31T13:52:09.315Z,2.83
2019-01-31T13:54:39.663Z,2.82
2019-01-31T13:57:20.554Z,2.86
2019-01-31T13:59:57.936Z,2.86
2019-01-31T14:02:31.935Z,2.85
2019-01-31T14:05:02.198Z,2.83
2019-01-31T14:07:33.630Z,2.85
2019-01-31T14:10:05.057Z,2.81
2019-01-31T14:12:37.839Z,2.74
2019-01-31T14:15:15.136Z,2.71
2019-01-31T14:17:47.933Z,2.71
2019-01-31T14:20:25.020Z,2.68
2019-01-31T14:22:55.289Z,2.65
2019-01-31T14:25:27.163Z,2.60
2019-01-31T14:27:57.427Z,2.56
2019-01-31T14:30:35.705Z,2.55
2019-01-31T14:33:09.152Z,2.56
2019-01-31T14:35:39.396Z,2.54
2019-01-31T14:38:10.597Z,2.54
2019-01-31T14:40:40.848Z,2.57
2019-01-31T14:43:12.003Z,2.54
2019-01-31T14:45:42.258Z,2.48
2019-01-31T14:48:12.625Z,2.41
2019-01-31T14:50:42.854Z,2.33
2019-01-31T14:53:14.314Z,2.28
2019-01-31T14:55:44.575Z,2.27
2019-01-31T14:58:14.844Z,2.25
2019-01-31T15:00:50.714Z,2.19
2019-01-31T15:03:28.542Z,2.11
2019-01-31T15:05:59.752Z,2.03
2019-01-31T15:08:32.974Z,1.95
2019-01-31T15:11:04.383Z,1.75
2019-01-31T15:13:35.865Z,1.58
2019-01-31T15:16:07.295Z,1.40
2019-01-31T15:18:40.262Z,1.25
2019-01-31T15:21:11.721Z,1.17
2019-01-31T15:23:43.191Z,1.12
2019-01-31T15:26:16.586Z,1.09
2019-01-31T15:28:46.865Z,0.85
2019-01-31T15:31:18.965Z,0.85
2019-01-31T15:33:49.250Z,0.71
2019-01-31T15:36:19.597Z,0.62
2019-01-31T15:38:50.659Z,0.51
2019-01-31T15:41:20.982Z,0.40
2019-01-31T15:43:51.269Z,0.32
2019-01-31T15:46:21.520Z,0.26
2019-01-31T15:48:51.798Z,0.25
2019-01-31T15:51:23.006Z,0.16
2019-01-31T15:53:54.453Z,0.01
2019-01-31T15:56:26.158Z,-0.11
2019-01-31T15:58:56.820Z,-0.18
2019-01-31T16:01:27.288Z,-0.29
2019-01-31T16:04:00.867Z,-0.32
2019-01-31T16:06:30.469Z,-0.36
2019-01-31T16:09:00.748Z,-0.51
2019-01-31T16:11:32.779Z,-0.58
2019-01-31T16:14:03.078Z,-0.59
2019-01-31T16:16:33.307Z,-0.60
2019-01-31T16:19:03.595Z,-0.63
2019-01-31T16:21:33.846Z,-0.68
2019-01-31T16:24:04.112Z,-0.78
2019-01-31T16:26:35.337Z,-0.79
2019-01-31T16:29:05.611Z,-0.85
2019-01-31T16:31:35.869Z,-0.94
2019-01-31T16:34:06.160Z,-0.92
2019-01-31T16:36:36.521Z,-0.99
2019-01-31T16:39:13.531Z,-0.99
2019-01-31T16:41:43.832Z,-0.99
2019-01-31T16:44:14.876Z,-1.01
2019-01-31T16:46:46.329Z,-1.01
2019-01-31T16:49:18.721Z,-1.05
2019-01-31T16:51:50.143Z,-1.07
2019-01-31T16:54:21.610Z,-1.11
2019-01-31T16:56:53.061Z,-1.15
2019-01-31T16:59:28.499Z,-1.19
2019-01-31T17:02:00.359Z,-1.19
2019-01-31T17:04:30.929Z,-1.24
2019-01-31T17:07:02.836Z,-1.28
2019-01-31T17:09:33.130Z,-1.28
2019-01-31T17:12:03.388Z,-1.30
2019-01-31T17:14:33.678Z,-1.33
2019-01-31T17:17:04.048Z,-1.38
2019-01-31T17:19:36.755Z,-1.47
2019-01-31T17:22:07.911Z,-1.54
2019-01-31T17:24:38.181Z,-1.61
2019-01-31T17:27:08.533Z,-1.66
2019-01-31T17:29:38.860Z,-1.73
2019-01-31T17:32:10.645Z,-1.79
2019-01-31T17:34:40.998Z,-1.81
2019-01-31T17:37:11.287Z,-1.83
2019-01-31T17:39:42.511Z,-1.80
2019-01-31T17:42:14.166Z,-1.77
2019-01-31T17:44:44.476Z,-1.73
2019-01-31T17:47:14.796Z,-1.65
2019-01-31T17:49:48.389Z,-1.62
2019-01-31T17:52:17.557Z,-1.60
2019-01-31T17:54:47.843Z,-1.51
2019-01-31T17:57:18.389Z,-1.39
2019-01-31T17:59:48.662Z,-1.30
2019-01-31T18:02:18.919Z,-1.27
2019-01-31T18:04:51.134Z,-1.30
2019-01-31T18:07:21.418Z,-1.24
2019-01-31T18:09:51.713Z,-1.19
2019-01-31T18:12:22.212Z,-1.12
2019-01-31T18:14:53.607Z,-1.09
2019-01-31T18:17:23.959Z,-1.12
2019-01-31T18:19:58.167Z,-1.06
2019-01-31T18:22:30.316Z,-1.01
2019-01-31T18:25:06.353Z,-0.97
2019-01-31T18:27:49.433Z,-0.90
2019-01-31T18:30:29.651Z,-0.86
2019-01-31T18:33:02.421Z,-0.92
2019-01-31T18:35:41.652Z,-1.00
2019-01-31T18:38:12.014Z,-1.08
2019-01-31T18:40:42.553Z,-1.11
2019-01-31T18:43:17.941Z,-1.17
2019-01-31T18:45:53.354Z,-1.21
2019-01-31T18:48:27.855Z,-1.22
2019-01-31T18:51:04.701Z,-1.29
2019-01-31T18:53:37.211Z,-1.34
2019-01-31T18:56:15.313Z,-1.38
2019-01-31T18:58:49.566Z,-1.38
2019-01-31T19:01:19.966Z,-1.47
2019-01-31T19:03:53.202Z,-1.54
2019-01-31T19:06:26.573Z,-1.60
2019-01-31T19:08:56.858Z,-1.68
2019-01-31T19:11:27.578Z,-1.75
2019-01-31T19:13:59.529Z,-1.78
2019-01-31T19:16:29.886Z,-1.86
2019-01-31T19:19:00.209Z,-1.88
2019-01-31T19:21:30.665Z,-1.87
2019-01-31T19:24:02.371Z,-1.92
2019-01-31T19:26:34.006Z,-1.97
2019-01-31T19:29:04.608Z,-2.02
2019-01-31T19:31:34.999Z,-2.06
2019-01-31T19:34:05.727Z,-2.09
2019-01-31T19:36:40.311Z,-2.14
2019-01-31T19:39:14.542Z,-2.21
2019-01-31T19:41:49.387Z,-2.31
2019-01-31T19:44:19.855Z,-2.35
2019-01-31T19:46:53.242Z,-2.37
2019-01-31T19:49:24.676Z,-2.44
2019-01-31T19:52:01.932Z,-2.49
2019-01-31T19:54:34.560Z,-2.50
2019-01-31T19:57:12.445Z,-2.54
2019-01-31T19:59:46.471Z,-2.61
2019-01-31T20:02:20.875Z,-2.65
2019-01-31T20:04:56.879Z,-2.68
2019-01-31T20:07:30.708Z,-2.72
2019-01-31T20:10:02.164Z,-2.75
2019-01-31T20:12:34.692Z,-2.76
2019-01-31T20:15:10.787Z,-2.76
2019-01-31T20:17:42.825Z,-2.78
2019-01-31T20:20:17.765Z,-2.85
2019-01-31T20:22:50.778Z,-2.88
2019-01-31T20:25:21.331Z,-2.84
2019-01-31T20:27:55.139Z,-2.84
2019-01-31T20:30:30.913Z,-2.83
2019-01-31T20:33:04.440Z,-2.85
2019-01-31T20:35:34.723Z,-2.89
2019-01-31T20:38:08.263Z,-2.95
2019-01-31T20:40:42.245Z,-2.98
2019-01-31T20:43:20.959Z,-3.01
2019-01-31T20:45:53.586Z,-2.99
2019-01-31T20:48:28.098Z,-3.04
2019-01-31T20:51:05.732Z,-3.02
2019-01-31T20:53:36.031Z,-3.05
2019-01-31T20:56:08.385Z,-3.08
2019-01-31T20:58:44.774Z,-3.09
2019-01-31T21:01:19.418Z,-3.12
2019-01-31T21:03:51.051Z,-3.18
2019-01-31T21:06:24.081Z,-3.19
2019-01-31T21:08:57.770Z,-3.24
2019-01-31T21:11:30.757Z,-3.27
2019-01-31T21:14:06.274Z,-3.25
2019-01-31T21:16:35.649Z,-3.26
2019-01-31T21:19:05.935Z,-3.25
2019-01-31T21:21:37.844Z,-3.28
2019-01-31T21:24:08.112Z,-3.26
2019-01-31T21:26:38.387Z,-3.27
2019-01-31T21:29:09.821Z,-3.33
2019-01-31T21:31:41.959Z,-3.33
2019-01-31T21:34:18.514Z,-3.30
2019-01-31T21:37:00.445Z,-3.23
2019-01-31T21:39:36.855Z,-3.19
2019-01-31T21:42:16.780Z,-3.24
2019-01-31T21:44:48.513Z,-3.20
2019-01-31T21:47:19.681Z,-3.17
2019-01-31T21:50:07.329Z,-3.20
2019-01-31T21:52:46.918Z,-3.14
2019-01-31T21:55:17.191Z,-3.16
2019-01-31T21:57:47.446Z,-3.24
2019-01-31T22:00:23.328Z,-3.22
2019-01-31T22:02:54.716Z,-3.18
2019-01-31T22:05:25.041Z,-3.11
2019-01-31T22:07:56.064Z,-3.11
2019-01-31T22:10:26.412Z,-3.12
2019-01-31T22:12:56.649Z,-3.12
2019-01-31T22:15:32.614Z,-3.12
2019-01-31T22:18:04.347Z,-3.11
2019-01-31T22:20:36.278Z,-3.12
2019-01-31T22:23:06.545Z,-3.12
2019-01-31T22:25:36.851Z,-3.16
2019-01-31T22:28:07.099Z,-3.18
2019-01-31T22:30:38.343Z,-3.19
2019-01-31T22:33:08.624Z,-3.19
2019-01-31T22:35:38.921Z,-3.20
2019-01-31T22:38:09.173Z,-3.16
2019-01-31T22:40:39.463Z,-3.12
2019-01-31T22:43:09.718Z,-3.19
2019-01-31T22:45:39.997Z,-3.19
2019-01-31T22:48:10.247Z,-3.16
2019-01-31T22:50:40.527Z,-3.11
2019-01-31T22:53:10.785Z,-3.07
2019-01-31T22:55:41.082Z,-3.04
2019-01-31T22:58:11.344Z,-2.99
2019-01-31T23:01:01.266Z,-2.96
2019-01-31T23:03:32.595Z,-2.96
2019-01-31T23:06:02.861Z,-2.87
2019-01-31T23:08:33.128Z,-2.79
2019-01-31T23:11:03.409Z,-2.67
2019-01-31T23:13:33.665Z,-2.60
2019-01-31T23:16:04.309Z,-2.58
2019-01-31T23:18:34.564Z,-2.54
2019-01-31T23:21:06.378Z,-2.50
2019-01-31T23:23:36.643Z,-2.49
2019-01-31T23:26:07.082Z,-2.49
2019-01-31T23:28:37.333Z,-2.48
2019-01-31T23:31:07.606Z,-2.48
2019-01-31T23:33:40.780Z,-2.56
2019-01-31T23:36:09.844Z,-2.52
2019-01-31T23:38:40.099Z,-2.50
2019-01-31T23:41:10.376Z,-2.55
2019-01-31T23:43:40.622Z,-2.58
2019-01-31T23:46:11.830Z,-2.61
2019-01-31T23:48:43.350Z,-2.58
2019-01-31T23:51:13.657Z,-2.49
2019-01-31T23:53:43.903Z,-2.41
2019-01-31T23:56:14.171Z,-2.30
2019-01-31T23:58:44.426Z,-2.25
